Duvernay, Canada
Current Conditions -  °F | °C
As of 10:00 AM on Saturday 22 Nov 2014 (Local Time) from CYUL Reporting Station
Broken Clouds Broken Clouds  
Wind Chill: -9°   Ceiling: 13000
Heat Index: -1°   Visibility: 15mi
Dew Point: -7°   Wind: 24mph
Humidity: 64%   Direction: 220°SW
Pressure: 30.09"   Gusts: 36mph
Location:  45.57°N, 73.85°W
Report Text: CYUL 221500Z 22021G31KT 15SM FEW040 BKN130 BKN240 M01/M07 A3009 RMK SC1AC5CI1 SC TR SLP192
Loading
Personal Weather Stations






























Interactive Weather Map New forecast layout! Learn more

10-Day Weather Forecast

Advertisements
Track Severe Weather on mobile